Time;durP1;ratioP1;P1;durP2;ratioP2;P2;SDS_P1;SDS_P2;PMS_P1;PMS_P2;Temp;Humidity;BMP_temperature;BMP_pressure;BME280_temperature;BME280_humidity;BME280_pressure;Samples;Min_cycle;Max_cycle;Signal;HPM_P1;HPM_P2
2022/07/17 00:00:52;;;;;;;7.27;3.17;;;15.50;94.80;;;;;;5101839;28;20583;-84
2022/07/17 00:03:18;;;;;;;5.47;3.20;;;15.50;95.30;;;;;;5085898;28;20218;-84
2022/07/17 00:05:44;;;;;;;3.80;2.90;;;15.40;95.20;;;;;;5099873;28;20645;-84
2022/07/17 00:08:11;;;;;;;3.73;3.10;;;15.40;95.50;;;;;;5100204;28;20181;-84
2022/07/17 00:10:39;;;;;;;5.60;3.10;;;15.30;95.70;;;;;;5086363;28;20556;-84
2022/07/17 00:13:05;;;;;;;4.80;2.93;;;15.20;95.80;;;;;;5084890;28;20190;-84
2022/07/17 00:15:32;;;;;;;4.67;2.90;;;15.20;95.90;;;;;;5083880;28;20169;-84
2022/07/17 00:17:58;;;;;;;4.73;2.93;;;15.20;96.50;;;;;;5084685;28;20169;-84
2022/07/17 00:20:25;;;;;;;4.43;3.17;;;15.20;96.70;;;;;;5084796;28;20183;-84
2022/07/17 00:22:54;;;;;;;7.90;2.90;;;15.10;96.60;;;;;;5084698;28;20693;-84
2022/07/17 00:25:21;;;;;;;4.17;2.50;;;15.10;96.80;;;;;;5083224;28;20230;-84
2022/07/17 00:27:46;;;;;;;5.57;3.07;;;15.10;96.80;;;;;;5082653;28;20188;-84
2022/07/17 00:30:13;;;;;;;4.10;2.97;;;;;;;;;;5082872;28;20205;-84
2022/07/17 00:32:39;;;;;;;3.77;2.80;;;15.00;97.30;;;;;;5082262;28;20180;-84
2022/07/17 00:35:05;;;;;;;3.27;2.50;;;15.00;97.60;;;;;;5081691;28;20313;-84
2022/07/17 00:37:37;;;;;;;3.70;3.00;;;14.90;98.10;;;;;;5079148;28;20177;-84
2022/07/17 00:40:03;;;;;;;4.63;2.63;;;14.90;98.10;;;;;;5076048;28;20199;-84
2022/07/17 00:42:28;;;;;;;3.17;2.47;;;14.90;98.60;;;;;;5081320;28;20185;-84
2022/07/17 00:44:56;;;;;;;7.27;2.90;;;;;;;;;;5085710;28;20223;-84
2022/07/17 00:47:22;;;;;;;2.80;2.50;;;14.80;98.60;;;;;;5086038;28;20177;-84
2022/07/17 00:49:48;;;;;;;6.93;2.93;;;14.80;99.20;;;;;;5087436;28;20589;-84
2022/07/17 00:52:15;;;;;;;4.70;3.10;;;14.80;99.70;;;;;;5085804;28;20591;-84
2022/07/17 00:54:42;;;;;;;3.07;2.70;;;14.70;99.60;;;;;;5085497;28;20202;-84
2022/07/17 00:57:13;;;;;;;4.43;2.90;;;14.70;99.90;;;;;;5087281;28;20178;-84
2022/07/17 00:59:39;;;;;;;6.30;2.90;;;14.70;99.90;;;;;;5087161;28;20182;-84
2022/07/17 01:02:07;;;;;;;4.10;2.83;;;14.70;99.90;;;;;;5086953;28;20186;-84
2022/07/17 01:04:34;;;;;;;4.47;3.50;;;14.70;99.90;;;;;;5087349;28;20190;-84
2022/07/17 01:07:01;;;;;;;6.20;3.53;;;14.60;99.90;;;;;;5085916;28;20188;-85
2022/07/17 01:09:27;;;;;;;10.17;2.87;;;14.60;99.90;;;;;;5085508;28;20197;-84
2022/07/17 01:11:55;;;;;;;6.03;3.13;;;14.60;99.90;;;;;;5081627;28;20184;-84
2022/07/17 01:14:22;;;;;;;3.93;2.90;;;14.60;99.90;;;;;;5083894;28;20256;-84
2022/07/17 01:16:49;;;;;;;3.90;2.80;;;14.60;99.90;;;;;;5083286;28;20227;-84
2022/07/17 01:19:15;;;;;;;7.20;2.83;;;14.50;99.90;;;;;;5083692;28;20181;-84
2022/07/17 01:21:46;;;;;;;3.13;2.77;;;14.40;99.90;;;;;;5087460;28;20233;-84
2022/07/17 01:24:13;;;;;;;6.83;3.23;;;14.30;99.90;;;;;;5085920;28;20221;-84
2022/07/17 01:26:48;;;;;;;4.37;2.87;;;14.40;99.90;;;;;;5089611;28;20220;-84
2022/07/17 01:29:15;;;;;;;9.03;3.10;;;14.40;99.90;;;;;;5088135;28;20669;-83
2022/07/17 01:31:42;;;;;;;3.33;2.87;;;14.30;99.90;;;;;;5089902;28;20169;-84
2022/07/17 01:34:09;;;;;;;3.80;2.90;;;14.30;99.90;;;;;;5085543;28;20304;-84
2022/07/17 01:36:35;;;;;;;3.20;2.80;;;14.30;99.90;;;;;;5085924;28;20219;-84
2022/07/17 01:39:01;;;;;;;5.07;3.30;;;14.30;99.90;;;;;;5085800;28;20188;-84
2022/07/17 01:41:27;;;;;;;8.00;2.83;;;14.20;99.90;;;;;;5085787;28;20166;-84
2022/07/17 01:43:53;;;;;;;4.80;3.07;;;;;;;;;;5100983;28;20239;-84
2022/07/17 01:46:19;;;;;;;4.67;3.60;;;14.20;99.90;;;;;;5085494;28;20632;-84
2022/07/17 01:48:45;;;;;;;4.40;3.10;;;;;;;;;;5085730;28;20184;-84
2022/07/17 01:51:11;;;;;;;4.90;2.97;;;14.10;99.90;;;;;;5085447;28;20728;-84
2022/07/17 01:53:37;;;;;;;5.63;3.17;;;;;;;;;;5085859;28;20189;-84
2022/07/17 01:56:03;;;;;;;3.47;2.93;;;14.10;99.90;;;;;;5083687;28;20195;-84
2022/07/17 01:58:28;;;;;;;5.77;3.30;;;14.10;99.90;;;;;;5083566;28;20209;-84
2022/07/17 02:00:55;;;;;;;4.27;3.00;;;14.00;99.90;;;;;;5101137;28;20177;-84
2022/07/17 02:03:21;;;;;;;4.43;3.37;;;14.00;99.90;;;;;;5101694;28;20193;-84
2022/07/17 02:05:48;;;;;;;4.63;3.27;;;14.00;99.90;;;;;;5085873;28;20169;-84
2022/07/17 02:08:13;;;;;;;4.63;2.60;;;14.00;99.90;;;;;;5101240;28;20643;-84
2022/07/17 02:10:39;;;;;;;4.73;2.83;;;14.00;99.90;;;;;;5101059;28;20200;-84
2022/07/17 02:13:05;;;;;;;5.03;3.17;;;13.90;99.90;;;;;;5086677;28;20223;-84
2022/07/17 02:15:30;;;;;;;6.17;3.07;;;13.90;99.90;;;;;;5086054;28;20181;-84
2022/07/17 02:17:56;;;;;;;5.27;3.03;;;13.90;99.90;;;;;;5099934;28;20177;-84
2022/07/17 02:20:22;;;;;;;3.10;2.73;;;13.80;99.90;;;;;;5084059;28;20204;-84
2022/07/17 02:22:49;;;;;;;4.47;2.70;;;13.80;99.90;;;;;;5080424;28;20173;-83
2022/07/17 02:25:17;;;;;;;4.90;2.63;;;13.80;99.90;;;;;;5078633;28;20268;-83
2022/07/17 02:27:43;;;;;;;6.93;3.30;;;13.80;99.90;;;;;;5078750;28;20226;-84
2022/07/17 02:30:15;;;;;;;13.83;2.77;;;13.70;99.90;;;;;;5094472;28;20678;-84
2022/07/17 02:32:41;;;;;;;3.27;2.77;;;13.70;99.90;;;;;;5076724;28;20169;-83
2022/07/17 02:35:09;;;;;;;3.73;2.97;;;13.70;99.90;;;;;;5078043;28;20176;-84
2022/07/17 02:37:36;;;;;;;3.30;3.00;;;13.60;99.90;;;;;;5076221;28;20202;-83
2022/07/17 02:40:04;;;;;;;4.53;2.83;;;13.60;99.90;;;;;;5076425;28;20195;-83
2022/07/17 02:42:30;;;;;;;3.77;3.03;;;13.60;99.90;;;;;;5074550;28;20183;-83
2022/07/17 02:44:57;;;;;;;2.97;2.60;;;13.60;99.90;;;;;;5075801;28;20199;-83
2022/07/17 02:47:27;;;;;;;4.67;2.80;;;13.50;99.90;;;;;;5085867;28;20187;-83
2022/07/17 02:49:53;;;;;;;5.97;2.83;;;13.50;99.90;;;;;;5086415;28;20196;-84
2022/07/17 02:52:19;;;;;;;3.53;2.57;;;13.60;99.90;;;;;;5084065;28;20197;-84
2022/07/17 02:54:45;;;;;;;4.10;2.90;;;13.40;99.90;;;;;;5084480;28;20193;-84
2022/07/17 02:57:12;;;;;;;4.70;2.73;;;13.40;99.90;;;;;;5086177;28;20218;-84
2022/07/17 02:59:38;;;;;;;4.03;2.70;;;13.40;99.90;;;;;;5084374;28;20180;-84
2022/07/17 03:02:04;;;;;;;5.20;2.97;;;13.30;99.90;;;;;;5086049;28;20172;-84
2022/07/17 03:04:30;;;;;;;4.13;3.10;;;13.30;99.90;;;;;;5089828;28;20204;-83
2022/07/17 03:06:55;;;;;;;4.83;3.00;;;13.30;99.90;;;;;;5103256;28;20185;-84
2022/07/17 03:09:22;;;;;;;4.13;3.20;;;;;;;;;;5100553;28;20671;-84
2022/07/17 03:11:47;;;;;;;4.67;3.23;;;13.20;99.90;;;;;;5085591;28;20177;-84
2022/07/17 03:14:13;;;;;;;12.60;3.87;;;13.20;99.90;;;;;;5101469;28;20602;-84
2022/07/17 03:16:39;;;;;;;3.57;2.97;;;13.20;99.90;;;;;;5100932;28;20185;-84
2022/07/17 03:19:05;;;;;;;3.67;3.30;;;;;;;;;;5100887;28;20173;-84
2022/07/17 03:21:30;;;;;;;7.93;3.63;;;13.00;99.90;;;;;;5084411;28;20181;-84
2022/07/17 03:23:56;;;;;;;4.17;3.10;;;;;;;;;;5100874;28;20675;-84
2022/07/17 03:26:22;;;;;;;4.80;3.43;;;12.90;99.90;;;;;;5085397;28;20172;-84
2022/07/17 03:28:48;;;;;;;4.03;2.93;;;;;;;;;;5100994;28;20184;-84
2022/07/17 03:31:14;;;;;;;4.13;3.17;;;13.00;99.90;;;;;;5085346;28;20200;-84
2022/07/17 03:33:39;;;;;;;5.67;3.20;;;12.90;99.90;;;;;;5084897;28;20207;-84
2022/07/17 03:36:06;;;;;;;4.60;3.37;;;12.90;99.90;;;;;;5085190;28;20307;-84
2022/07/17 03:38:32;;;;;;;3.50;3.20;;;12.90;99.90;;;;;;5084152;28;20189;-84
2022/07/17 03:40:58;;;;;;;3.50;3.07;;;12.90;99.90;;;;;;5083426;28;20181;-84
2022/07/17 03:43:24;;;;;;;3.33;3.03;;;12.80;99.90;;;;;;5085164;28;20224;-84
2022/07/17 03:45:49;;;;;;;8.77;3.30;;;12.90;99.90;;;;;;5086152;28;20671;-84
2022/07/17 03:48:15;;;;;;;4.77;3.50;;;12.80;99.90;;;;;;5104070;28;20180;-84
2022/07/17 03:50:41;;;;;;;3.60;3.30;;;;;;;;;;5097617;28;20208;-83
2022/07/17 03:53:07;;;;;;;3.93;3.23;;;12.80;99.90;;;;;;5097719;28;20200;-83
2022/07/17 03:55:33;;;;;;;6.63;3.30;;;;;;;;;;5097602;28;20161;-83
2022/07/17 03:57:59;;;;;;;3.97;3.53;;;12.70;99.90;;;;;;5098024;28;20582;-84
2022/07/17 04:00:25;;;;;;;4.63;3.40;;;;;;;;;;5096683;28;20200;-84
2022/07/17 04:02:51;;;;;;;4.73;3.23;;;12.60;99.90;;;;;;5091265;28;20169;-84
2022/07/17 04:05:17;;;;;;;4.23;3.30;;;12.70;99.90;;;;;;5098918;28;20172;-84
2022/07/17 04:07:43;;;;;;;3.97;3.50;;;;;;;;;;5081830;28;20164;-84
2022/07/17 04:10:10;;;;;;;5.03;3.43;;;12.60;99.90;;;;;;5082583;28;20589;-84
2022/07/17 04:12:37;;;;;;;5.53;3.20;;;;;;;;;;5082871;28;20169;-84
2022/07/17 04:15:04;;;;;;;5.17;3.70;;;12.60;99.90;;;;;;5083444;28;20582;-84
2022/07/17 04:17:30;;;;;;;4.07;3.40;;;12.60;99.90;;;;;;5081865;28;20206;-84
2022/07/17 04:19:56;;;;;;;6.90;4.03;;;;;;;;;;5083936;28;20176;-84
2022/07/17 04:22:22;;;;;;;4.87;3.50;;;12.60;99.90;;;;;;5084275;28;20528;-84
2022/07/17 04:24:48;;;;;;;6.17;3.70;;;;;;;;;;5082907;28;20209;-84
2022/07/17 04:27:14;;;;;;;4.67;3.73;;;12.50;99.90;;;;;;5082392;28;20176;-84
2022/07/17 04:29:40;;;;;;;8.03;3.90;;;12.70;99.90;;;;;;5082534;28;20223;-84
2022/07/17 04:32:06;;;;;;;4.50;3.57;;;12.70;99.90;;;;;;5083950;28;20222;-84
2022/07/17 04:34:32;;;;;;;4.83;3.73;;;12.80;99.90;;;;;;5099966;28;20197;-84
2022/07/17 04:36:58;;;;;;;4.83;3.77;;;12.90;99.90;;;;;;5083897;28;20177;-84
2022/07/17 04:39:24;;;;;;;4.40;3.57;;;12.90;99.90;;;;;;5082764;28;20201;-84
2022/07/17 04:41:50;;;;;;;5.00;3.53;;;13.00;99.90;;;;;;5098843;28;20661;-83
2022/07/17 04:44:16;;;;;;;6.40;3.53;;;13.00;99.90;;;;;;5075811;28;20246;-83
2022/07/17 04:46:42;;;;;;;4.67;3.73;;;13.00;99.90;;;;;;5073890;28;20180;-83
2022/07/17 04:49:08;;;;;;;4.87;3.50;;;;;;;;;;5090161;28;20181;-87
2022/07/17 04:51:34;;;;;;;3.93;3.60;;;13.10;99.90;;;;;;5075551;28;20169;-87
2022/07/17 04:54:00;;;;;;;5.47;2.90;;;13.20;99.90;;;;;;5100489;28;20200;-87
2022/07/17 04:56:26;;;;;;;5.30;3.40;;;;;;;;;;5086831;28;20177;-86
2022/07/17 04:58:52;;;;;;;4.37;3.40;;;13.40;99.90;;;;;;5085344;28;20269;-86
2022/07/17 05:01:18;;;;;;;4.77;3.80;;;;;;;;;;5086218;28;20173;-87
2022/07/17 05:03:44;;;;;;;6.03;4.03;;;13.60;99.90;;;;;;5086480;28;20596;-85
2022/07/17 05:06:10;;;;;;;4.87;3.33;;;13.80;99.90;;;;;;5102750;28;20188;-86
2022/07/17 05:08:36;;;;;;;9.77;4.00;;;13.70;99.90;;;;;;5085825;28;20207;-85
2022/07/17 05:11:02;;;;;;;6.80;4.10;;;13.80;99.90;;;;;;5084929;28;20224;-86
2022/07/17 05:13:28;;;;;;;3.47;3.17;;;;;;;;;;5085270;28;20196;-87
2022/07/17 05:15:54;;;;;;;4.80;3.30;;;13.80;99.90;;;;;;5085435;28;20183;-85
2022/07/17 05:18:20;;;;;;;4.53;3.40;;;;;;;;;;5100945;28;20267;-87
2022/07/17 05:20:46;;;;;;;5.90;3.37;;;13.90;99.90;;;;;;5083404;28;20539;-88
2022/07/17 05:23:12;;;;;;;7.67;3.27;;;;;;;;;;5100200;28;20292;-88
2022/07/17 05:25:38;;;;;;;4.03;3.37;;;;;;;;;;5084939;28;20260;-88
2022/07/17 05:28:04;;;;;;;4.13;3.10;;;14.20;99.90;;;;;;5083394;28;20263;-88
2022/07/17 05:30:30;;;;;;;4.97;3.33;;;14.40;99.90;;;;;;5085405;28;20583;-89
2022/07/17 05:32:56;;;;;;;5.60;3.43;;;14.50;99.90;;;;;;5101564;28;20180;-88
2022/07/17 05:35:22;;;;;;;3.73;3.17;;;14.50;99.90;;;;;;5101666;28;20623;-88
2022/07/17 05:37:48;;;;;;;3.87;2.93;;;;;;;;;;5100552;28;20180;-87
2022/07/17 05:40:14;;;;;;;4.53;3.07;;;14.70;99.90;;;;;;5084090;28;20644;-88
2022/07/17 05:42:40;;;;;;;3.13;2.83;;;;;;;;;;5101311;28;20181;-87
2022/07/17 05:45:06;;;;;;;5.33;2.93;;;14.90;99.90;;;;;;5086235;28;20201;-87
2022/07/17 05:47:32;;;;;;;5.50;3.10;;;15.00;99.90;;;;;;5082234;28;20184;-88
2022/07/17 05:49:58;;;;;;;3.37;2.50;;;;;;;;;;5100443;28;20204;-87
2022/07/17 05:52:24;;;;;;;3.27;2.43;;;15.20;99.90;;;;;;5083550;28;20195;-87
2022/07/17 05:54:49;;;;;;;4.87;2.67;;;15.30;99.90;;;;;;5101599;28;20616;-87
2022/07/17 05:57:16;;;;;;;2.53;2.33;;;;;;;;;;5101503;28;20173;-87
2022/07/17 05:59:41;;;;;;;7.57;2.30;;;15.50;99.90;;;;;;5084082;28;20606;-87
2022/07/17 06:02:07;;;;;;;3.87;2.80;;;15.60;99.90;;;;;;5100162;28;20192;-85
2022/07/17 06:04:33;;;;;;;3.77;2.33;;;;;;;;;;5082208;28;20205;-88
2022/07/17 06:06:59;;;;;;;5.63;2.67;;;15.80;99.90;;;;;;5082741;28;20622;-85
2022/07/17 06:09:25;;;;;;;2.60;2.40;;;15.90;99.90;;;;;;5082770;28;20207;-88
2022/07/17 06:11:51;;;;;;;3.90;2.60;;;15.90;99.90;;;;;;5082450;28;20173;-87
2022/07/17 06:14:17;;;;;;;4.13;2.80;;;16.10;99.90;;;;;;5097553;28;20193;-87
2022/07/17 06:16:43;;;;;;;4.67;3.23;;;16.20;99.90;;;;;;5082467;28;20193;-87
2022/07/17 06:19:08;;;;;;;8.43;3.03;;;16.30;99.90;;;;;;5105956;28;20642;-85
2022/07/17 06:21:34;;;;;;;3.17;2.50;;;;;;;;;;5082089;28;20615;-89
2022/07/17 06:24:03;;;;;;;4.70;2.80;;;16.50;99.90;;;;;;5080597;28;20185;-88
2022/07/17 06:26:28;;;;;;;6.23;3.33;;;17.40;99.90;;;;;;5081202;28;20603;-86
2022/07/17 06:28:55;;;;;;;4.37;2.40;;;16.60;99.90;;;;;;5097500;28;20170;-88
2022/07/17 06:31:22;;;;;;;4.47;2.20;;;16.70;99.90;;;;;;5079994;28;20209;-88
2022/07/17 06:33:48;;;;;;;3.70;2.80;;;16.80;99.90;;;;;;5096728;28;20219;-88
2022/07/17 06:36:14;;;;;;;4.93;2.77;;;15.10;99.90;;;;;;5080406;28;20173;-88
2022/07/17 06:38:39;;;;;;;6.50;2.40;;;16.90;99.90;;;;;;5097112;28;20592;-87
2022/07/17 06:41:05;;;;;;;4.63;2.70;;;17.00;99.90;;;;;;5096016;28;20291;-88
2022/07/17 06:43:31;;;;;;;3.17;2.47;;;;;;;;;;5095367;28;20196;-86
2022/07/17 06:45:57;;;;;;;3.40;2.23;;;17.20;99.90;;;;;;5079025;28;20545;-84
2022/07/17 06:48:23;;;;;;;2.80;2.20;;;;;;;;;;5095531;28;20188;-87
2022/07/17 06:50:49;;;;;;;2.90;2.40;;;17.40;99.90;;;;;;5078267;28;20569;-86
2022/07/17 06:53:15;;;;;;;3.13;2.00;;;17.60;99.90;;;;;;5077721;28;20194;-86
2022/07/17 06:55:41;;;;;;;5.37;3.20;;;17.70;99.90;;;;;;5076498;28;20614;-84
2022/07/17 06:58:07;;;;;;;3.87;2.17;;;;;;;;;;5062755;28;20235;-88
2022/07/17 07:00:33;;;;;;;2.83;2.30;;;17.90;99.90;;;;;;5059899;28;20242;-83
2022/07/17 07:02:58;;;;;;;3.53;2.20;;;18.20;99.90;;;;;;5059759;28;20221;-83
2022/07/17 07:05:24;;;;;;;3.30;2.10;;;18.20;99.90;;;;;;5077577;28;20222;-82
2022/07/17 07:07:50;;;;;;;3.23;1.80;;;18.30;99.90;;;;;;5081122;28;20208;-82
2022/07/17 07:10:16;;;;;;;3.67;1.97;;;;;;;;;;5078734;28;20221;-83
2022/07/17 07:12:42;;;;;;;5.07;1.90;;;18.60;99.90;;;;;;5082122;28;20539;-83
2022/07/17 07:15:08;;;;;;;2.53;1.83;;;18.70;99.90;;;;;;5079626;28;20203;-83
2022/07/17 07:17:35;;;;;;;4.87;1.93;;;18.90;99.90;;;;;;5064124;28;20192;-84
2022/07/17 07:20:03;;;;;;;3.33;1.83;;;19.00;99.90;;;;;;5075430;28;20209;-82
2022/07/17 07:22:30;;;;;;;3.63;1.73;;;19.10;99.90;;;;;;5071310;28;20181;-82
2022/07/17 07:24:57;;;;;;;4.63;2.00;;;19.30;99.90;;;;;;5059578;28;20208;-82
2022/07/17 07:27:23;;;;;;;10.23;2.47;;;;;;;;;;5058498;28;20200;-83
2022/07/17 07:29:49;;;;;;;3.33;1.90;;;19.60;99.90;;;;;;5059435;28;20216;-82
2022/07/17 07:32:15;;;;;;;5.03;1.80;;;19.70;99.90;;;;;;5059042;28;20250;-82
2022/07/17 07:34:40;;;;;;;4.77;1.97;;;19.80;99.90;;;;;;5061586;28;20231;-83
2022/07/17 07:37:06;;;;;;;2.20;1.80;;;19.90;99.90;;;;;;5076976;28;20196;-82
2022/07/17 07:39:32;;;;;;;5.17;2.00;;;20.00;99.80;;;;;;5060267;28;20193;-83
2022/07/17 07:41:58;;;;;;;2.30;1.60;;;20.10;99.00;;;;;;5059294;28;20315;-82
2022/07/17 07:44:23;;;;;;;3.40;1.33;;;20.30;98.50;;;;;;5069961;28;20555;-83
2022/07/17 07:46:49;;;;;;;3.13;1.57;;;20.30;99.90;;;;;;5069600;28;20189;-86
2022/07/17 07:49:15;;;;;;;3.57;1.60;;;20.50;99.80;;;;;;5060412;28;20181;-83
2022/07/17 07:51:41;;;;;;;5.73;1.90;;;20.60;99.90;;;;;;5070201;28;20185;-87
2022/07/17 07:54:07;;;;;;;3.03;1.63;;;20.80;97.50;;;;;;5074788;28;20205;-84
2022/07/17 07:56:33;;;;;;;5.17;1.60;;;;;;;;;;5063765;28;20178;-87
2022/07/17 07:58:59;;;;;;;2.63;1.83;;;21.00;96.80;;;;;;5065787;28;20185;-83
2022/07/17 08:01:25;;;;;;;3.57;2.00;;;21.00;98.30;;;;;;5057938;28;20182;-84
2022/07/17 08:03:51;;;;;;;4.03;1.83;;;21.10;99.70;;;;;;5062245;28;20208;-84
2022/07/17 08:06:17;;;;;;;4.90;1.50;;;;;;;;;;5078652;28;20176;-87
2022/07/17 08:08:42;;;;;;;4.33;1.60;;;21.50;96.80;;;;;;5077822;28;20205;-84
2022/07/17 08:11:08;;;;;;;2.20;1.40;;;21.50;96.30;;;;;;5077550;28;20599;-80
2022/07/17 08:13:34;;;;;;;3.13;1.80;;;21.60;96.20;;;;;;5077764;28;20270;-85
2022/07/17 08:15:59;;;;;;;3.37;1.60;;;21.70;96.80;;;;;;5078538;28;20510;-84
2022/07/17 08:18:26;;;;;;;2.97;1.90;;;;;;;;;;5077188;28;20177;-84
2022/07/17 08:20:52;;;;;;;2.47;1.60;;;21.90;98.70;;;;;;5077191;28;20173;-84
2022/07/17 08:23:18;;;;;;;5.43;1.50;;;22.00;96.40;;;;;;5064474;28;20697;-84
2022/07/17 08:25:46;;;;;;;2.77;1.67;;;22.00;94.70;;;;;;5060042;28;20169;-84
2022/07/17 08:28:12;;;;;;;1.60;1.50;;;22.20;95.50;;;;;;5059576;28;20177;-85
2022/07/17 08:30:37;;;;;;;6.30;1.90;;;22.40;95.20;;;;;;5063114;28;20236;-85
2022/07/17 08:33:06;;;;;;;4.27;1.90;;;22.50;95.10;;;;;;5062132;28;20173;-87
2022/07/17 08:35:32;;;;;;;5.30;1.80;;;22.70;95.50;;;;;;5062693;28;20162;-84
2022/07/17 08:38:00;;;;;;;9.00;1.80;;;22.90;93.70;;;;;;5063233;28;20194;-86
2022/07/17 08:40:31;;;;;;;2.30;1.43;;;23.00;94.90;;;;;;5062018;28;20183;-85
2022/07/17 08:42:58;;;;;;;2.67;1.70;;;23.30;94.60;;;;;;5062221;28;20176;-85
2022/07/17 08:45:25;;;;;;;3.53;1.60;;;23.30;94.10;;;;;;5079975;28;20177;-86
2022/07/17 08:47:51;;;;;;;4.20;2.17;;;23.50;92.50;;;;;;5083856;28;20206;-84
2022/07/17 08:50:24;;;;;;;2.27;1.93;;;23.60;94.80;;;;;;5082806;28;20250;-84
2022/07/17 08:52:50;;;;;;;5.90;1.93;;;23.80;92.10;;;;;;5080893;28;20179;-83
2022/07/17 08:55:16;;;;;;;1.93;1.60;;;23.80;92.30;;;;;;5081229;28;20176;-86
2022/07/17 08:57:43;;;;;;;5.33;1.93;;;23.90;92.20;;;;;;5078904;28;20205;-81
2022/07/17 09:00:12;;;;;;;4.23;1.60;;;24.00;93.20;;;;;;5077339;28;20724;-79
2022/07/17 09:02:53;;;;;;;4.67;1.90;;;24.30;92.90;;;;;;5078004;28;20177;-82
2022/07/17 09:05:21;;;;;;;3.23;1.60;;;24.60;93.00;;;;;;5083906;28;20177;-86
2022/07/17 09:07:47;;;;;;;1.80;1.60;;;24.80;90.10;;;;;;5065828;28;20186;-83
2022/07/17 09:10:14;;;;;;;5.03;1.80;;;25.00;91.50;;;;;;5065092;28;20205;-84
2022/07/17 09:12:40;;;;;;;3.57;1.73;;;25.30;86.60;;;;;;5064147;28;20184;-85
2022/07/17 09:15:17;;;;;;;2.60;1.73;;;25.50;92.20;;;;;;5063671;28;20258;-84
2022/07/17 09:17:53;;;;;;;2.93;1.63;;;25.80;89.60;;;;;;5065179;28;20171;-82
2022/07/17 09:20:20;;;;;;;3.43;1.47;;;26.00;90.10;;;;;;5067921;28;20189;-84
2022/07/17 09:23:04;;;;;;;4.27;1.57;;;26.40;79.30;;;;;;5083846;28;20187;-82
2022/07/17 09:25:42;;;;;;;2.23;1.53;;;26.40;77.60;;;;;;5083131;28;20187;-84
2022/07/17 09:28:11;;;;;;;2.20;1.60;;;26.00;82.90;;;;;;5066850;28;20194;-82
2022/07/17 09:30:40;;;;;;;2.10;1.30;;;25.90;80.30;;;;;;5076292;28;20258;-84
2022/07/17 09:33:11;;;;;;;2.17;1.63;;;25.90;81.70;;;;;;5085165;28;20190;-82
2022/07/17 09:35:48;;;;;;;2.20;1.80;;;25.90;80.90;;;;;;5085716;28;20166;-85
2022/07/17 09:38:29;;;;;;;2.10;1.50;;;26.10;80.40;;;;;;5083698;28;20193;-81
2022/07/17 09:41:15;;;;;;;2.70;1.60;;;26.20;81.50;;;;;;5085812;28;20184;-81
2022/07/17 09:43:44;;;;;;;2.20;1.70;;;26.50;82.60;;;;;;5086168;28;20201;-85
2022/07/17 09:46:13;;;;;;;3.00;1.67;;;26.60;77.90;;;;;;5061915;28;20210;-85
2022/07/17 09:48:47;;;;;;;1.97;1.57;;;26.70;80.90;;;;;;5061599;28;20668;-82
2022/07/17 09:51:17;;;;;;;2.70;1.70;;;26.90;85.60;;;;;;5074263;28;20187;-81
2022/07/17 09:53:46;;;;;;;4.63;1.63;;;27.10;74.90;;;;;;5061947;28;20192;-85
2022/07/17 09:56:17;;;;;;;3.87;1.70;;;27.10;77.90;;;;;;5083312;28;20172;-85
2022/07/17 09:58:46;;;;;;;2.13;1.47;;;27.30;79.80;;;;;;5085115;28;20576;-86
2022/07/17 10:01:15;;;;;;;3.10;1.40;;;27.30;77.60;;;;;;5064306;28;20191;-86
2022/07/17 10:03:42;;;;;;;3.63;1.70;;;27.30;75.90;;;;;;5062826;28;20677;-84
2022/07/17 10:06:10;;;;;;;1.87;1.50;;;27.50;83.40;;;;;;5078631;28;20198;-82
2022/07/17 10:08:37;;;;;;;3.83;1.60;;;27.70;79.70;;;;;;5084602;28;20177;-85
2022/07/17 10:11:08;;;;;;;2.47;1.57;;;27.80;84.90;;;;;;5085026;28;20235;-82
2022/07/17 10:13:39;;;;;;;4.50;1.70;;;27.80;75.10;;;;;;5084915;28;20257;-82
2022/07/17 10:16:06;;;;;;;4.70;1.73;;;27.90;81.30;;;;;;5082122;28;20188;-84
2022/07/17 10:18:43;;;;;;;3.30;1.30;;;28.10;73.40;;;;;;5064658;28;20174;-84
2022/07/17 10:21:09;;;;;;;2.20;1.60;;;28.40;74.10;;;;;;5063543;28;20197;-84
2022/07/17 10:23:35;;;;;;;2.87;1.60;;;28.70;77.20;;;;;;5063493;28;20205;-83
2022/07/17 10:26:01;;;;;;;4.00;1.60;;;28.80;78.20;;;;;;5067461;28;20202;-83
2022/07/17 10:28:45;;;;;;;3.97;1.63;;;28.90;76.70;;;;;;5080437;28;20660;-84
2022/07/17 10:31:26;;;;;;;3.70;1.50;;;28.80;72.60;;;;;;5087995;28;20210;-82
2022/07/17 10:34:03;;;;;;;1.60;1.50;;;28.80;79.20;;;;;;5066388;28;20197;-84
2022/07/17 10:36:41;;;;;;;1.73;1.43;;;29.00;69.40;;;;;;5063366;28;20186;-83
2022/07/17 10:39:20;;;;;;;5.47;1.40;;;28.90;68.40;;;;;;5080746;28;20198;-82
2022/07/17 10:41:59;;;;;;;4.43;1.80;;;29.00;69.40;;;;;;5084240;28;20202;-84
2022/07/17 10:44:29;;;;;;;3.40;1.30;;;29.10;73.00;;;;;;5083112;28;20196;-84
2022/07/17 10:46:56;;;;;;;2.37;1.53;;;29.20;72.40;;;;;;5082590;28;20178;-81
2022/07/17 10:49:26;;;;;;;2.60;1.50;;;29.40;66.60;;;;;;5077222;28;20230;-83
2022/07/17 10:51:52;;;;;;;3.67;1.70;;;29.60;66.90;;;;;;5062170;28;20204;-82
2022/07/17 10:54:19;;;;;;;4.37;1.57;;;29.70;70.60;;;;;;5065144;28;20337;-81
2022/07/17 10:56:45;;;;;;;2.07;1.60;;;29.80;66.40;;;;;;5070219;28;20188;-85
2022/07/17 10:59:11;;;;;;;2.23;1.90;;;30.00;67.10;;;;;;5080025;28;20177;-80
2022/07/17 11:01:37;;;;;;;4.20;1.87;;;30.10;62.20;;;;;;5079775;28;20182;-79
2022/07/17 11:04:06;;;;;;;4.13;1.53;;;30.30;70.80;;;;;;5076387;28;20200;-80
2022/07/17 11:06:38;;;;;;;1.90;1.67;;;30.30;70.70;;;;;;5060260;28;20189;-80
2022/07/17 11:09:13;;;;;;;2.80;1.60;;;30.50;65.90;;;;;;5060238;28;20189;-83
2022/07/17 11:11:40;;;;;;;2.30;1.80;;;30.60;68.50;;;;;;5081156;28;20260;-85
2022/07/17 11:14:10;;;;;;;3.70;1.80;;;30.80;68.70;;;;;;5081981;28;20625;-84
2022/07/17 11:16:36;;;;;;;2.87;1.60;;;31.00;69.90;;;;;;5082090;28;20172;-82
2022/07/17 11:19:02;;;;;;;2.97;1.53;;;31.20;63.00;;;;;;5081105;28;20533;-82
2022/07/17 11:21:27;;;;;;;1.67;1.20;;;31.10;63.10;;;;;;5080520;28;20663;-82
2022/07/17 11:23:56;;;;;;;4.73;1.73;;;31.20;64.10;;;;;;5081184;28;20671;-81
2022/07/17 11:26:22;;;;;;;1.83;1.63;;;31.00;66.90;;;;;;5080542;28;20635;-82
2022/07/17 11:28:49;;;;;;;1.60;1.30;;;31.00;62.00;;;;;;5081445;28;20201;-82
2022/07/17 11:31:16;;;;;;;3.80;1.50;;;31.00;65.20;;;;;;5082697;28;20201;-83
2022/07/17 11:33:55;;;;;;;3.27;1.50;;;31.00;58.20;;;;;;5079774;28;20566;-83
2022/07/17 11:36:46;;;;;;;1.87;1.67;;;31.00;65.20;;;;;;5083194;28;20194;-84
2022/07/17 11:39:18;;;;;;;6.03;1.60;;;31.20;58.20;;;;;;5079511;28;20201;-83
2022/07/17 11:41:52;;;;;;;1.43;1.20;;;31.40;63.00;;;;;;5082556;28;20179;-83
2022/07/17 11:44:20;;;;;;;1.83;1.40;;;31.60;62.90;;;;;;5083851;28;20213;-81
2022/07/17 11:46:48;;;;;;;3.73;1.70;;;31.70;60.50;;;;;;5080817;28;20174;-82
2022/07/17 11:49:43;;;;;;;3.13;1.50;;;31.90;63.80;;;;;;5076813;28;20199;-83
2022/07/17 11:52:20;;;;;;;4.17;1.57;;;31.90;60.20;;;;;;5072649;28;20197;-82
2022/07/17 11:54:51;;;;;;;6.27;1.67;;;31.80;68.10;;;;;;5079423;28;20200;-83
2022/07/17 11:57:18;;;;;;;4.70;1.60;;;31.70;58.30;;;;;;5080064;28;20544;-83
2022/07/17 11:59:44;;;;;;;4.33;1.70;;;31.60;58.40;;;;;;5080787;28;20619;-85
2022/07/17 12:02:22;;;;;;;13.00;1.93;;;31.60;61.20;;;;;;5079508;28;20550;-83
2022/07/17 12:04:59;;;;;;;3.33;1.73;;;31.70;62.90;;;;;;5080145;28;20678;-84
2022/07/17 12:07:38;;;;;;;3.37;1.80;;;31.90;58.40;;;;;;5084282;28;20178;-84
2022/07/17 12:10:20;;;;;;;3.87;1.60;;;31.90;66.20;;;;;;5082522;28;20195;-83
2022/07/17 12:12:59;;;;;;;4.37;1.63;;;32.30;57.50;;;;;;5080141;28;20169;-84
2022/07/17 12:15:35;;;;;;;6.43;1.83;;;32.20;55.60;;;;;;5082314;28;20174;-83
2022/07/17 12:18:01;;;;;;;3.40;1.40;;;32.30;61.10;;;;;;5080874;28;20182;-84
2022/07/17 12:20:44;;;;;;;3.17;1.80;;;32.30;58.20;;;;;;5082235;28;20189;-83
2022/07/17 12:23:25;;;;;;;2.30;1.57;;;32.40;57.40;;;;;;5081008;28;20227;-84
2022/07/17 12:25:51;;;;;;;4.60;1.70;;;32.50;62.00;;;;;;5080072;28;20185;-83
2022/07/17 12:28:16;;;;;;;3.10;1.60;;;32.60;59.80;;;;;;5080273;28;20566;-84
2022/07/17 12:30:42;;;;;;;1.77;1.50;;;32.70;53.70;;;;;;5081983;28;20228;-83
2022/07/17 12:33:08;;;;;;;1.80;1.57;;;32.60;53.40;;;;;;5076967;28;20223;-83
2022/07/17 12:35:33;;;;;;;2.00;1.77;;;32.70;54.90;;;;;;5062580;28;20192;-86
2022/07/17 12:38:00;;;;;;;1.73;1.50;;;32.90;54.80;;;;;;5073388;28;20294;-86
2022/07/17 12:40:26;;;;;;;3.50;1.63;;;32.90;52.60;;;;;;5064252;28;20187;-86
2022/07/17 12:42:51;;;;;;;1.90;1.40;;;32.90;52.40;;;;;;5085696;28;20191;-86
2022/07/17 12:45:17;;;;;;;2.93;1.67;;;32.90;53.70;;;;;;5073893;28;20218;-87
2022/07/17 12:47:43;;;;;;;4.70;1.63;;;33.00;53.50;;;;;;5077458;28;20194;-83
2022/07/17 12:50:09;;;;;;;2.00;1.80;;;33.20;53.60;;;;;;5078433;28;20203;-83
2022/07/17 12:52:35;;;;;;;1.80;1.70;;;33.50;51.80;;;;;;5077594;28;20256;-83
2022/07/17 12:55:01;;;;;;;1.70;1.60;;;33.70;55.80;;;;;;5078273;28;20268;-84
2022/07/17 12:57:26;;;;;;;6.40;1.40;;;33.70;54.40;;;;;;5079897;28;20649;-86
2022/07/17 12:59:52;;;;;;;2.27;1.97;;;33.60;53.30;;;;;;5063751;28;20198;-84